Observation data for Hart on 02/13/2017      Previous  Date  Next       Current Mesonet Observations  Soil Data  Daily Summary Page  Observations in Plain Language
KHRS 130600Z 05011G16KT 05/M08 A3035 RMK A01 T00451081  RH  040%=      5-min Rain = 0
KHRS 130605Z 06012KT 05/M08 A3035 RMK A01 T00451083  RH  040%=      5-min Rain = 0
KHRS 130610Z 06012G17KT 04/M08 A3034 RMK A01 T00441082  RH  040%=      5-min Rain = 0
KHRS 130615Z 06012KT 04/M08 A3034 RMK A01 T00441082  RH  040%=      5-min Rain = 0
KHRS 130620Z 06012KT 04/M08 A3034 RMK A01 T00431082  RH  040%=      5-min Rain = 0
KHRS 130625Z 06011KT 04/M08 A3035 RMK A01 T00421081  RH  041%=      5-min Rain = 0
KHRS 130630Z 06012KT 04/M08 A3035 RMK A01 T00411082  RH  041%=      5-min Rain = 0
KHRS 130635Z 06010KT 04/M08 A3035 RMK A01 T00411082  RH  041%=      5-min Rain = 0
KHRS 130640Z 06009KT 04/M08 A3035 RMK A01 T00411081  RH  041%=      5-min Rain = 0
KHRS 130645Z 06009KT 04/M08 A3035 RMK A01 T00401081  RH  041%=      5-min Rain = 0
KHRS 130650Z 06009KT 04/M08 A3035 RMK A01 T00391081  RH  042%=      5-min Rain = 0
KHRS 130655Z 06008KT 04/M08 A3035 RMK A01 T00381080  RH  042%=      5-min Rain = 0
KHRS 130700Z 06008KT 04/M08 A3035 RMK A01 T00371079  RH  043%=      5-min Rain = 0
KHRS 130705Z 06008KT 04/M08 A3035 RMK A01 T00361079  RH  043%=      5-min Rain = 0
KHRS 130710Z 07007KT 04/M08 A3036 RMK A01 T00361078  RH  044%=      5-min Rain = 0
KHRS 130715Z 07008KT 04/M08 A3036 RMK A01 T00351077  RH  044%=      5-min Rain = 0
KHRS 130720Z 07009KT 04/M08 A3035 RMK A01 T00351077  RH  044%=      5-min Rain = 0
KHRS 130725Z 07009KT 04/M08 A3036 RMK A01 T00351077  RH  044%=      5-min Rain = 0
KHRS 130730Z 07009KT 03/M08 A3035 RMK A01 T00341077  RH  045%=      5-min Rain = 0
KHRS 130735Z 08010KT 03/M08 A3034 RMK A01 T00341075  RH  045%=      5-min Rain = 0
KHRS 130740Z 07012KT 03/M08 A3033 RMK A01 T00341075  RH  045%=      5-min Rain = 0
KHRS 130745Z 07011KT 03/M08 A3033 RMK A01 T00341075  RH  045%=      5-min Rain = 0
KHRS 130750Z 08010KT 03/M08 A3034 RMK A01 T00331076  RH  045%=      5-min Rain = 0
KHRS 130755Z 07008KT 03/M08 A3034 RMK A01 T00311075  RH  046%=      5-min Rain = 0
KHRS 130800Z 06009KT 03/M08 A3034 RMK A01 T00301075  RH  046%=      5-min Rain = 0
KHRS 130805Z 05009KT 03/M08 A3034 RMK A01 T00291075  RH  047%=      5-min Rain = 0
KHRS 130810Z 05007KT 03/M07 A3034 RMK A01 T00291074  RH  047%=      5-min Rain = 0
KHRS 130815Z 05005KT 03/M07 A3035 RMK A01 T00291074  RH  047%=      5-min Rain = 0
KHRS 130820Z 03004KT 03/M07 A3036 RMK A01 T00291074  RH  047%=      5-min Rain = 0
KHRS 130825Z 03005KT 03/M07 A3035 RMK A01 T00281073  RH  048%=      5-min Rain = 0
KHRS 130830Z 03007KT 03/M07 A3034 RMK A01 T00261071  RH  049%=      5-min Rain = 0
KHRS 130835Z 05006KT 03/M07 A3034 RMK A01 T00261072  RH  049%=      5-min Rain = 0
KHRS 130840Z 05009KT 02/M07 A3032 RMK A01 T00241072  RH  050%=      5-min Rain = 0
KHRS 130845Z 06007KT 03/M07 A3032 RMK A01 T00251073  RH  049%=      5-min Rain = 0
KHRS 130850Z 06007KT 03/M07 A3032 RMK A01 T00261073  RH  049%=      5-min Rain = 0
KHRS 130855Z 06007KT 03/M07 A3032 RMK A01 T00261074  RH  048%=      5-min Rain = 0
KHRS 130900Z 05005KT 03/M07 A3032 RMK A01 T00261074  RH  048%=      5-min Rain = 0
KHRS 130905Z 05005KT 03/M07 A3032 RMK A01 T00251074  RH  049%=      5-min Rain = 0
KHRS 130910Z 03005KT 02/M07 A3032 RMK A01 T00241073  RH  049%=      5-min Rain = 0
KHRS 130915Z 04003KT 02/M07 A3034 RMK A01 T00241074  RH  049%=      5-min Rain = 0
KHRS 130920Z 05006KT 02/M08 A3032 RMK A01 T00241075  RH  049%=      5-min Rain = 0
KHRS 130925Z 06007KT 03/M08 A3032 RMK A01 T00251079  RH  047%=      5-min Rain = 0
KHRS 130930Z 05007KT 03/M08 A3032 RMK A01 T00251078  RH  047%=      5-min Rain = 0
KHRS 130935Z 05007KT 03/M08 A3031 RMK A01 T00251078  RH  047%=      5-min Rain = 0
KHRS 130940Z 04006KT 03/M08 A3031 RMK A01 T00251075  RH  048%=      5-min Rain = 0
KHRS 130945Z 03005KT 02/M07 A3031 RMK A01 T00241072  RH  050%=      5-min Rain = 0
KHRS 130950Z 04006KT 02/M07 A3031 RMK A01 T00241073  RH  049%=      5-min Rain = 0
KHRS 130955Z 04007KT 02/M08 A303 RMK A01 T00241076  RH  048%=      5-min Rain = 0
KHRS 131000Z 05007KT 02/M08 A3031 RMK A01 T00241079  RH  047%=      5-min Rain = 0
KHRS 131005Z 05006KT 02/M08 A3031 RMK A01 T00231080  RH  047%=      5-min Rain = 0
KHRS 131010Z 05007KT 02/M08 A303 RMK A01 T00231081  RH  047%=      5-min Rain = 0
KHRS 131015Z 06006KT 02/M08 A3031 RMK A01 T00231083  RH  046%=      5-min Rain = 0
KHRS 131020Z 06005KT 02/M08 A3032 RMK A01 T00231081  RH  047%=      5-min Rain = 0
KHRS 131025Z 06005KT 02/M08 A3032 RMK A01 T00221081  RH  047%=      5-min Rain = 0
KHRS 131030Z 06004KT 02/M08 A3032 RMK A01 T00221080  RH  047%=      5-min Rain = 0
KHRS 131035Z 05003KT 02/M08 A3032 RMK A01 T00221082  RH  047%=      5-min Rain = 0
KHRS 131040Z 05003KT 02/M08 A3032 RMK A01 T00221081  RH  047%=      5-min Rain = 0
KHRS 131045Z 04004KT 02/M08 A3032 RMK A01 T00221082  RH  047%=      5-min Rain = 0
KHRS 131050Z 05004KT 02/M08 A3032 RMK A01 T00221081  RH  047%=      5-min Rain = 0
KHRS 131055Z 06003KT 02/M07 A3032 RMK A01 T00201066  RH  053%=      5-min Rain = 0
KHRS 131100Z 06003KT 02/M06 A3031 RMK A01 T00171058  RH  058%=      5-min Rain = 0
KHRS 131105Z 06004KT 01/M05 A3031 RMK A01 T00141046  RH  065%=      5-min Rain = 0.01
KHRS 131110Z 05004KT 01/M04 A303 RMK A01 T00121040  RH  069%=      5-min Rain = 0
KHRS 131115Z 05006KT 01/M04 A303 RMK A01 T00111036  RH  072%=      5-min Rain = 0
KHRS 131120Z 04009KT 01/M03 A3028 RMK A01 T00091032  RH  075%=      5-min Rain = 0.02
KHRS 131125Z 04008KT 01/M03 A3028 RMK A01 T00071030  RH  077%=      5-min Rain = 0
KHRS 131130Z 04005KT 01/M03 A303 RMK A01 T00061032  RH  077%=      5-min Rain = 0.01
KHRS 131135Z 04006KT 01/M03 A3029 RMK A01 T00061034  RH  076%=      5-min Rain = 0
KHRS 131140Z 03006KT 01/M03 A3029 RMK A01 T00051031  RH  078%=      5-min Rain = 0.01
KHRS 131145Z 02007KT 00/M03 A3028 RMK A01 T00031031  RH  079%=      5-min Rain = 0.01
KHRS 131150Z 02008KT 00/M03 A3027 RMK A01 T00021031  RH  080%=      5-min Rain = 0.01
KHRS 131155Z 02009KT 00/M03 A3027 RMK A01 T00011030  RH  081%=      5-min Rain = 0.01
KHRS 131200Z 01009KT 00/03 A3026 RMK A01 T00000-29  RH  082%=      5-min Rain = 0
KHRS 131205Z 36008KT 00/03 A3026 RMK A01 T00-00-28  RH  082%=      5-min Rain = 0
KHRS 131210Z 35008KT 00/03 A3025 RMK A01 T00-00-25  RH  084%=      5-min Rain = 0
KHRS 131215Z 35010KT 00/03 A3024 RMK A01 T00-00-25  RH  084%=      5-min Rain = 0
KHRS 131220Z 34009KT 00/02 A3024 RMK A01 T00-00-24  RH  085%=      5-min Rain = 0
KHRS 131225Z 33007KT 00/03 A3026 RMK A01 T00-00-26  RH  084%=      5-min Rain = 0
KHRS 131230Z 33007KT 00/03 A3026 RMK A01 T00-00-28  RH  083%=      5-min Rain = 0
KHRS 131235Z 32006KT 00/03 A3028 RMK A01 T00-00-30  RH  082%=      5-min Rain = 0
KHRS 131240Z 33006KT 00/03 A3027 RMK A01 T00000-28  RH  082%=      5-min Rain = 0
KHRS 131245Z 32005KT 00/03 A3029 RMK A01 T00000-28  RH  082%=      5-min Rain = 0
KHRS 131250Z 31006KT 00/03 A3029 RMK A01 T00000-27  RH  083%=      5-min Rain = 0.01
KHRS 131255Z 31005KT 00/03 A303 RMK A01 T00000-27  RH  083%=      5-min Rain = 0
KHRS 131300Z 33004KT 00/03 A303 RMK A01 T00000-27  RH  083%=      5-min Rain = 0
KHRS 131305Z 34005KT 00/03 A3029 RMK A01 T00-00-27  RH  083%=      5-min Rain = 0
KHRS 131310Z 34005KT 00/03 A3029 RMK A01 T00-00-25  RH  084%=      5-min Rain = 0
KHRS 131315Z 00005KT 00/03 A3029 RMK A01 T00-00-25  RH  085%=      5-min Rain = 0
KHRS 131320Z 00001KT M00/M03 A3031 RMK A01 T10011027  RH  084%=      5-min Rain = 0
KHRS 131325Z 01003KT M00/M03 A303 RMK A01 T10011028  RH  083%=      5-min Rain = 0
KHRS 131330Z 02005KT 00/03 A3029 RMK A01 T00-00-29  RH  082%=      5-min Rain = 0
KHRS 131335Z 05004KT 00/03 A3029 RMK A01 T00000-29  RH  082%=      5-min Rain = 0
KHRS 131340Z 05006KT 00/03 A3028 RMK A01 T00-00-31  RH  081%=      5-min Rain = 0
KHRS 131345Z 05007KT 00/03 A3027 RMK A01 T00000-32  RH  080%=      5-min Rain = 0
KHRS 131350Z 04006KT 00/03 A3026 RMK A01 T00000-30  RH  081%=      5-min Rain = 0
KHRS 131355Z 04006KT 00/03 A3027 RMK A01 T00000-30  RH  081%=      5-min Rain = 0
KHRS 131400Z 03004KT 00/03 A3028 RMK A01 T00000-30  RH  081%=      5-min Rain = 0
KHRS 131405Z 03006KT 00/M03 A3027 RMK A01 T00011031  RH  080%=      5-min Rain = 0
KHRS 131410Z 03007KT 00/M03 A3026 RMK A01 T00011028  RH  081%=      5-min Rain = 0
KHRS 131415Z 02005KT 00/M03 A3026 RMK A01 T00021028  RH  081%=      5-min Rain = 0
KHRS 131420Z 02006KT 00/M03 A3026 RMK A01 T00021028  RH  081%=      5-min Rain = 0
KHRS 131425Z 01005KT 00/M03 A3027 RMK A01 T00021029  RH  080%=      5-min Rain = 0
KHRS 131430Z 02007KT 00/M03 A3025 RMK A01 T00021030  RH  080%=      5-min Rain = 0
KHRS 131435Z 02007KT 00/M03 A3025 RMK A01 T00031027  RH  081%=      5-min Rain = 0
KHRS 131440Z 35005KT 00/M03 A3027 RMK A01 T00031026  RH  082%=      5-min Rain = 0
KHRS 131445Z 30003KT 00/M03 A3029 RMK A01 T00041028  RH  080%=      5-min Rain = 0
KHRS 131450Z 33003KT 00/M03 A303 RMK A01 T00041031  RH  078%=      5-min Rain = 0
KHRS 131455Z 21006KT 00/M03 A3034 RMK A01 T00031028  RH  080%=      5-min Rain = 0.01
KHRS 131500Z 21003KT 00/M03 A3033 RMK A01 T00021025  RH  083%=      5-min Rain = 0
KHRS 131505Z 22001KT 00/M03 A3031 RMK A01 T00011026  RH  083%=      5-min Rain = 0
KHRS 131510Z 02004KT M00/M03 A3028 RMK A01 T10011026  RH  084%=      5-min Rain = 0
KHRS 131515Z 02010KT M00/M02 A3024 RMK A01 T10031024  RH  087%=      5-min Rain = 0
KHRS 131520Z 34008KT M01/M02 A3026 RMK A01 T10051023  RH  089%=      5-min Rain = 0.03
KHRS 131525Z 33006KT M01/M02 A3027 RMK A01 T10061021  RH  090%=      5-min Rain = 0
KHRS 131530Z 34004KT M01/M02 A3028 RMK A01 T10061023  RH  090%=      5-min Rain = 0.01
KHRS 131535Z 36005KT M01/M02 A3027 RMK A01 T10061021  RH  090%=      5-min Rain = 0.01
KHRS 131540Z 00006KT M01/M02 A3027 RMK A01 T10061021  RH  090%=      5-min Rain = 0
KHRS 131545Z 01006KT M01/M02 A3025 RMK A01 T10051021  RH  090%=      5-min Rain = 0.01
KHRS 131550Z 00005KT M01/M02 A3026 RMK A01 T10061022  RH  090%=      5-min Rain = 0
KHRS 131555Z 36006KT M01/M02 A3026 RMK A01 T10051020  RH  090%=      5-min Rain = 0
KHRS 131600Z 36006KT M00/M02 A3025 RMK A01 T10041019  RH  090%=      5-min Rain = 0
KHRS 131605Z 35008KT M00/M02 A3025 RMK A01 T10041021  RH  090%=      5-min Rain = 0.01
KHRS 131610Z 01007KT M00/M02 A3025 RMK A01 T10041021  RH  089%=      5-min Rain = 0
KHRS 131615Z 02006KT M00/M02 A3025 RMK A01 T10031020  RH  089%=      5-min Rain = 0
KHRS 131620Z 04007KT M00/M02 A3024 RMK A01 T10041022  RH  089%=      5-min Rain = 0.01
KHRS 131625Z 06010KT M00/M02 A3022 RMK A01 T10041021  RH  089%=      5-min Rain = 0
KHRS 131630Z 06011KT M00/M02 A3021 RMK A01 T10031017  RH  091%=      5-min Rain = 0
KHRS 131635Z 06008KT M00/M02 A3022 RMK A01 T10021016  RH  092%=      5-min Rain = 0.01
KHRS 131640Z 04010KT M00/M02 A302 RMK A01 T10031017  RH  091%=      5-min Rain = 0
KHRS 131645Z 05014KT M00/M02 A3017 RMK A01 T10031016  RH  092%=      5-min Rain = 0.01
KHRS 131650Z 02007G12KT M00/M02 A3021 RMK A01 T10021015  RH  092%=      5-min Rain = 0.01
KHRS 131655Z 35007KT M00/M01 A3021 RMK A01 T10011013  RH  092%=      5-min Rain = 0.01
KHRS 131700Z 33005KT 00/M01 A3022 RMK A01 T00011011  RH  093%=      5-min Rain = 0.01
KHRS 131705Z 35005KT 00/M01 A3022 RMK A01 T00011013  RH  092%=      5-min Rain = 0
KHRS 131710Z 36004KT 00/M01 A3022 RMK A01 T00021012  RH  092%=      5-min Rain = 0.01
KHRS 131715Z 03005KT 00/M01 A3021 RMK A01 T00021012  RH  091%=      5-min Rain = 0.01
KHRS 131720Z 02005KT 00/M01 A3022 RMK A01 T00031011  RH  091%=      5-min Rain = 0
KHRS 131725Z 04006KT 00/M01 A3021 RMK A01 T00021012  RH  092%=      5-min Rain = 0
KHRS 131730Z 05004KT 00/M01 A3022 RMK A01 T00011013  RH  091%=      5-min Rain = 0
KHRS 131735Z 03003KT 00/M01 A3023 RMK A01 T00011014  RH  091%=      5-min Rain = 0
KHRS 131740Z 04003KT 00/01 A3023 RMK A01 T00000-14  RH  091%=      5-min Rain = 0
KHRS 131745Z 02002KT 00/01 A3023 RMK A01 T00000-14  RH  091%=      5-min Rain = 0.01
KHRS 131750Z 01004KT 00/M01 A3022 RMK A01 T00021012  RH  092%=      5-min Rain = 0.01
KHRS 131755Z 03004KT 00/M01 A3022 RMK A01 T00031010  RH  092%=      5-min Rain = 0
KHRS 131800Z 03003KT 00/M01 A3022 RMK A01 T00031010  RH  092%=      5-min Rain = 0
KHRS 131805Z 31001KT 00/M01 A3023 RMK A01 T00021011  RH  092%=      5-min Rain = 0.01
KHRS 131810Z 32004KT 00/M01 A3022 RMK A01 T00031010  RH  092%=      5-min Rain = 0
KHRS 131815Z 33005KT 00/M01 A3021 RMK A01 T00041008  RH  093%=      5-min Rain = 0
KHRS 131820Z 34005KT 00/M01 A302 RMK A01 T00041007  RH  093%=      5-min Rain = 0
KHRS 131825Z 30004KT 00/M01 A3022 RMK A01 T00041008  RH  093%=      5-min Rain = 0
KHRS 131830Z 29004KT 00/M01 A3022 RMK A01 T00031008  RH  093%=      5-min Rain = 0
KHRS 131835Z 36006KT 00/M01 A3019 RMK A01 T00021008  RH  094%=      5-min Rain = 0.02
KHRS 131840Z 35006KT 00/M01 A3017 RMK A01 T00031006  RH  095%=      5-min Rain = 0.03
KHRS 131845Z 31005KT 00/M00 A3019 RMK A01 T00041004  RH  095%=      5-min Rain = 0.01
KHRS 131850Z 33005KT 00/M00 A3018 RMK A01 T00041004  RH  095%=      5-min Rain = 0
KHRS 131855Z 35005KT 00/M01 A3018 RMK A01 T00031005  RH  096%=      5-min Rain = 0
KHRS 131900Z 36005KT 00/M00 A3017 RMK A01 T00041004  RH  096%=      5-min Rain = 0.01
KHRS 131905Z 36005KT 01/M00 A3016 RMK A01 T00051003  RH  096%=      5-min Rain = 0
KHRS 131910Z 36006KT 01/M00 A3016 RMK A01 T00061002  RH  096%=      5-min Rain = 0
KHRS 131915Z 34005KT 01/M00 A3016 RMK A01 T00051003  RH  095%=      5-min Rain = 0
KHRS 131920Z 35005KT 01/M00 A3016 RMK A01 T00071002  RH  095%=      5-min Rain = 0
KHRS 131925Z 36006KT 01/M00 A3015 RMK A01 T00081001  RH  095%=      5-min Rain = 0
KHRS 131930Z 36006KT 01/00 A3015 RMK A01 T00100002  RH  095%=      5-min Rain = 0
KHRS 131935Z 35007KT 01/00 A3014 RMK A01 T000900-0  RH  095%=      5-min Rain = 0
KHRS 131940Z 34006KT 01/M00 A3014 RMK A01 T00091001  RH  095%=      5-min Rain = 0
KHRS 131945Z 34004KT 01/M00 A3015 RMK A01 T00091001  RH  095%=      5-min Rain = 0
KHRS 131950Z 34006KT 01/00 A3014 RMK A01 T00090000  RH  095%=      5-min Rain = 0
KHRS 131955Z 35006KT 01/00 A3014 RMK A01 T00110002  RH  095%=      5-min Rain = 0.01
KHRS 132000Z 33006KT 01/00 A3014 RMK A01 T00110001  RH  095%=      5-min Rain = 0
KHRS 132005Z 34007KT 01/00 A3013 RMK A01 T00110001  RH  095%=      5-min Rain = 0
KHRS 132010Z 35007KT 01/00 A3012 RMK A01 T00110002  RH  095%=      5-min Rain = 0
KHRS 132015Z 35008KT 01/01 A3012 RMK A01 T00140005  RH  095%=      5-min Rain = 0
KHRS 132020Z 36009KT 02/01 A3011 RMK A01 T00150006  RH  095%=      5-min Rain = 0
KHRS 132025Z 35008KT 02/01 A3012 RMK A01 T00150005  RH  095%=      5-min Rain = 0
KHRS 132030Z 34008KT 01/01 A3012 RMK A01 T00140005  RH  095%=      5-min Rain = 0
KHRS 132035Z 34009KT 01/01 A3011 RMK A01 T00140005  RH  095%=      5-min Rain = 0
KHRS 132040Z 34008KT 01/01 A3011 RMK A01 T00140005  RH  095%=      5-min Rain = 0
KHRS 132045Z 34009KT 02/01 A301 RMK A01 T00150006  RH  095%=      5-min Rain = 0
KHRS 132050Z 35011KT 02/01 A3009 RMK A01 T00160007  RH  095%=      5-min Rain = 0
KHRS 132055Z 34011KT 02/01 A3009 RMK A01 T00180009  RH  095%=      5-min Rain = 0
KHRS 132100Z 34010KT 02/01 A3009 RMK A01 T00170008  RH  094%=      5-min Rain = 0
KHRS 132105Z 34011KT 02/01 A3009 RMK A01 T00180008  RH  095%=      5-min Rain = 0
KHRS 132110Z 35012KT 02/01 A3008 RMK A01 T00180009  RH  095%=      5-min Rain = 0
KHRS 132115Z 35012KT 02/01 A3008 RMK A01 T00190010  RH  095%=      5-min Rain = 0
KHRS 132120Z 34011KT 02/01 A3008 RMK A01 T00180009  RH  095%=      5-min Rain = 0
KHRS 132125Z 34011KT 02/01 A3008 RMK A01 T00180008  RH  095%=      5-min Rain = 0
KHRS 132130Z 35011KT 02/01 A3009 RMK A01 T00170008  RH  095%=      5-min Rain = 0
KHRS 132135Z 36009KT 02/01 A3009 RMK A01 T00180008  RH  095%=      5-min Rain = 0
KHRS 132140Z 35009KT 02/01 A3009 RMK A01 T00180008  RH  094%=      5-min Rain = 0
KHRS 132145Z 36010KT 02/01 A3008 RMK A01 T00190009  RH  094%=      5-min Rain = 0
KHRS 132150Z 36009KT 02/01 A3008 RMK A01 T00190009  RH  094%=      5-min Rain = 0
KHRS 132155Z 36010KT 02/01 A3007 RMK A01 T00200010  RH  094%=      5-min Rain = 0
KHRS 132200Z 36010KT 02/01 A3007 RMK A01 T00220011  RH  094%=      5-min Rain = 0
KHRS 132205Z 36009KT 02/01 A3008 RMK A01 T00210010  RH  094%=      5-min Rain = 0
KHRS 132210Z 35008KT 02/01 A3008 RMK A01 T00210010  RH  094%=      5-min Rain = 0
KHRS 132215Z 35008KT 02/01 A3008 RMK A01 T00210010  RH  094%=      5-min Rain = 0
KHRS 132220Z 34006KT 02/01 A3009 RMK A01 T00210009  RH  094%=      5-min Rain = 0
KHRS 132225Z 33006KT 02/01 A3009 RMK A01 T00210011  RH  094%=      5-min Rain = 0
KHRS 132230Z 32008KT 02/01 A3009 RMK A01 T00220012  RH  094%=      5-min Rain = 0
KHRS 132235Z 32007KT 02/01 A3009 RMK A01 T00230012  RH  094%=      5-min Rain = 0
KHRS 132240Z 33007KT 02/01 A3009 RMK A01 T00230013  RH  094%=      5-min Rain = 0
KHRS 132245Z 32007KT 02/01 A3009 RMK A01 T00230013  RH  094%=      5-min Rain = 0
KHRS 132250Z 32007KT 02/01 A3009 RMK A01 T00230012  RH  094%=      5-min Rain = 0
KHRS 132255Z 33008KT 02/01 A3009 RMK A01 T00240012  RH  093%=      5-min Rain = 0
KHRS 132300Z 33008KT 02/01 A3009 RMK A01 T00240013  RH  093%=      5-min Rain = 0
KHRS 132305Z 34008KT 02/01 A3008 RMK A01 T00240012  RH  093%=      5-min Rain = 0
KHRS 132310Z 34009KT 02/01 A3007 RMK A01 T00240011  RH  093%=      5-min Rain = 0
KHRS 132315Z 35010KT 02/01 A3006 RMK A01 T00240012  RH  093%=      5-min Rain = 0
KHRS 132320Z 34011KT 02/01 A3006 RMK A01 T00230012  RH  093%=      5-min Rain = 0
KHRS 132325Z 34010KT 02/01 A3006 RMK A01 T00240012  RH  093%=      5-min Rain = 0
KHRS 132330Z 36010KT 02/01 A3006 RMK A01 T00240013  RH  093%=      5-min Rain = 0
KHRS 132335Z 01009KT 02/01 A3007 RMK A01 T00240013  RH  094%=      5-min Rain = 0
KHRS 132340Z 00006KT 02/01 A3008 RMK A01 T00240013  RH  094%=      5-min Rain = 0
KHRS 132345Z 01003KT 02/01 A3009 RMK A01 T00230013  RH  094%=      5-min Rain = 0
KHRS 132350Z 11002KT 02/01 A3011 RMK A01 T00230012  RH  094%=      5-min Rain = 0
KHRS 132355Z 12001KT 02/01 A3011 RMK A01 T00230013  RH  094%=      5-min Rain = 0
KHRS 140000Z 11002KT 02/01 A301 RMK A01 T00230012  RH  094%=      5-min Rain = 0.01
KHRS 140005Z 11002KT 02/01 A301 RMK A01 T00210011  RH  094%=      5-min Rain = 0.01
KHRS 140010Z 08004KT 02/01 A3009 RMK A01 T00200010  RH  094%=      5-min Rain = 0.01
KHRS 140015Z 06004KT 02/01 A3008 RMK A01 T00200010  RH  095%=      5-min Rain = 0.01
KHRS 140020Z 04003KT 02/01 A3008 RMK A01 T00200012  RH  095%=      5-min Rain = 0
KHRS 140025Z 03004KT 02/01 A3008 RMK A01 T00200012  RH  096%=      5-min Rain = 0.01
KHRS 140030Z 03005KT 02/01 A3008 RMK A01 T00200012  RH  096%=      5-min Rain = 0
KHRS 140035Z 04008KT 02/01 A3007 RMK A01 T00210013  RH  096%=      5-min Rain = 0
KHRS 140040Z 04008KT 02/01 A3007 RMK A01 T00210014  RH  096%=      5-min Rain = 0
KHRS 140045Z 04009KT 02/01 A3007 RMK A01 T00210014  RH  097%=      5-min Rain = 0.01
KHRS 140050Z 04009KT 02/01 A3007 RMK A01 T00210014  RH  097%=      5-min Rain = 0
KHRS 140055Z 04008KT 02/02 A3007 RMK A01 T00210015  RH  097%=      5-min Rain = 0.01
KHRS 140100Z 05009KT 02/01 A3006 RMK A01 T00200014  RH  097%=      5-min Rain = 0.01
KHRS 140105Z 05009KT 02/01 A3006 RMK A01 T00200014  RH  097%=      5-min Rain = 0
KHRS 140110Z 04007KT 02/02 A3007 RMK A01 T00200015  RH  097%=      5-min Rain = 0
KHRS 140115Z 05006KT 02/02 A3007 RMK A01 T00200015  RH  098%=      5-min Rain = 0.01
KHRS 140120Z 06007KT 02/02 A3007 RMK A01 T00210016  RH  098%=      5-min Rain = 0
KHRS 140125Z 06009KT 02/02 A3006 RMK A01 T00200015  RH  098%=      5-min Rain = 0
KHRS 140130Z 05006KT 02/02 A3007 RMK A01 T00200016  RH  098%=      5-min Rain = 0
KHRS 140135Z 04004KT 02/02 A3007 RMK A01 T00200016  RH  098%=      5-min Rain = 0.01
KHRS 140140Z 02003KT 02/02 A3008 RMK A01 T00200016  RH  098%=      5-min Rain = 0
KHRS 140145Z 35003KT 02/02 A3009 RMK A01 T00200015  RH  098%=      5-min Rain = 0
KHRS 140150Z 35005KT 02/02 A3008 RMK A01 T00200016  RH  098%=      5-min Rain = 0
KHRS 140155Z 35007KT 02/02 A3007 RMK A01 T00200016  RH  098%=      5-min Rain = 0
KHRS 140200Z 35007KT 02/02 A3007 RMK A01 T00210017  RH  098%=      5-min Rain = 0
KHRS 140205Z 35005KT 02/02 A3007 RMK A01 T00200016  RH  098%=      5-min Rain = 0
KHRS 140210Z 35006KT 02/02 A3007 RMK A01 T00200016  RH  098%=      5-min Rain = 0
KHRS 140215Z 01007KT 02/02 A3006 RMK A01 T00200017  RH  098%=      5-min Rain = 0
KHRS 140220Z 01008KT 02/02 A3006 RMK A01 T00200017  RH  099%=      5-min Rain = 0
KHRS 140225Z 00009KT 02/02 A3005 RMK A01 T00210017  RH  099%=      5-min Rain = 0
KHRS 140230Z 36011KT 02/02 A3005 RMK A01 T00210017  RH  099%=      5-min Rain = 0
KHRS 140235Z 01010KT 02/02 A3004 RMK A01 T00210017  RH  099%=      5-min Rain = 0
KHRS 140240Z 36006KT 02/02 A3006 RMK A01 T00210018  RH  099%=      5-min Rain = 0
KHRS 140245Z 33005KT 02/02 A3008 RMK A01 T00210018  RH  099%=      5-min Rain = 0
KHRS 140250Z 32005KT 02/02 A3008 RMK A01 T00220018  RH  099%=      5-min Rain = 0
KHRS 140255Z 33004KT 02/02 A3008 RMK A01 T00220019  RH  099%=      5-min Rain = 0
KHRS 140300Z 33005KT 02/02 A3008 RMK A01 T00230019  RH  099%=      5-min Rain = 0
KHRS 140305Z 33007KT 02/02 A3009 RMK A01 T00230019  RH  099%=      5-min Rain = 0
KHRS 140310Z 33007KT 02/02 A3009 RMK A01 T00230019  RH  099%=      5-min Rain = 0
KHRS 140315Z 34007KT 02/02 A3008 RMK A01 T00230019  RH  098%=      5-min Rain = 0
KHRS 140320Z 34007KT 02/02 A3008 RMK A01 T00230019  RH  098%=      5-min Rain = 0
KHRS 140325Z 34008KT 02/02 A3008 RMK A01 T00230018  RH  098%=      5-min Rain = 0
KHRS 140330Z 34007KT 02/02 A3008 RMK A01 T00230018  RH  098%=      5-min Rain = 0
KHRS 140335Z 34008KT 02/02 A3008 RMK A01 T00230018  RH  098%=      5-min Rain = 0
KHRS 140340Z 33007KT 02/02 A3007 RMK A01 T00230018  RH  098%=      5-min Rain = 0
KHRS 140345Z 33007KT 02/02 A3007 RMK A01 T00220017  RH  098%=      5-min Rain = 0
KHRS 140350Z 33007KT 02/02 A3007 RMK A01 T00220016  RH  097%=      5-min Rain = 0
KHRS 140355Z 33007KT 02/01 A3007 RMK A01 T00210014  RH  097%=      5-min Rain = 0
KHRS 140400Z 34007KT 02/01 A3007 RMK A01 T00210014  RH  096%=      5-min Rain = 0
KHRS 140405Z 35010KT 02/01 A3007 RMK A01 T00200011  RH  095%=      5-min Rain = 0
KHRS 140410Z 35008KT 02/01 A3007 RMK A01 T00200009  RH  094%=      5-min Rain = 0
KHRS 140415Z 34009KT 02/01 A3007 RMK A01 T00200008  RH  093%=      5-min Rain = 0
KHRS 140420Z 34009KT 02/01 A3006 RMK A01 T00200008  RH  093%=      5-min Rain = 0
KHRS 140425Z 34009KT 02/01 A3006 RMK A01 T00200009  RH  093%=      5-min Rain = 0
KHRS 140430Z 34009KT 02/01 A3006 RMK A01 T00200009  RH  094%=      5-min Rain = 0
KHRS 140435Z 34010KT 02/01 A3005 RMK A01 T00200009  RH  094%=      5-min Rain = 0
KHRS 140440Z 34011KT 02/01 A3005 RMK A01 T00200009  RH  094%=      5-min Rain = 0
KHRS 140445Z 34009KT 02/01 A3005 RMK A01 T00200010  RH  094%=      5-min Rain = 0
KHRS 140450Z 34010KT 02/01 A3005 RMK A01 T00200009  RH  094%=      5-min Rain = 0
KHRS 140455Z 34009KT 02/01 A3005 RMK A01 T00200010  RH  094%=      5-min Rain = 0
KHRS 140500Z 34009KT 02/01 A3005 RMK A01 T00200010  RH  094%=      5-min Rain = 0
KHRS 140505Z 34009KT 02/01 A3004 RMK A01 T00200011  RH  095%=      5-min Rain = 0
KHRS 140510Z 34009KT 02/01 A3004 RMK A01 T00200010  RH  095%=      5-min Rain = 0
KHRS 140515Z 34010KT 02/01 A3004 RMK A01 T00200010  RH  094%=      5-min Rain = 0
KHRS 140520Z 34010KT 02/01 A3003 RMK A01 T00200010  RH  094%=      5-min Rain = 0
KHRS 140525Z 34010KT 02/01 A3003 RMK A01 T00200010  RH  094%=      5-min Rain = 0
KHRS 140530Z 34010KT 02/01 A3003 RMK A01 T00200010  RH  094%=      5-min Rain = 0
KHRS 140535Z 34011KT 02/01 A3003 RMK A01 T00200009  RH  094%=      5-min Rain = 0
KHRS 140540Z 34011KT 02/01 A3003 RMK A01 T00200009  RH  093%=      5-min Rain = 0
KHRS 140545Z 34012KT 02/01 A3003 RMK A01 T00200009  RH  093%=      5-min Rain = 0
KHRS 140550Z 34011KT 02/01 A3002 RMK A01 T00210009  RH  093%=      5-min Rain = 0
KHRS 140555Z 34010KT 02/01 A3003 RMK A01 T00210009  RH  093%=      5-min Rain = 0

Page generated in 0.181 seconds.